AQQ10 IFIS: Internet Flight Information System
logo dgac
Martes 21 de Septiembre del 2021
Buscar por aerodromo o helipuerto
Ingrese nombre de aeródromo, localidad o designador OACI:
METAR del 21-09-2021 a las 10:00 UTC
Para mayor información visite www.meteochile.cl
METAR SCVM 211000Z 10002KT 9999 FEW020 07/06 Q1015
Viento: dirección 100 grados, velocidad 2 nudos
Visibilidad: 10 km o más
Nubes: Escasa nubosidad a 2000 pies sobre el nivel del aeródromo
Temperatura: 7 °C
Rocío: 6 °C
Humedad_relativa: 93%
Presión: 1015 hPa
METAR del 21-09-2021 a las 09:00 UTC
Para mayor información visite www.meteochile.cl
METAR SCVM 210900Z 18002KT CAVOK 07/06 Q1014
Viento: dirección 180 grados, velocidad 2 nudos
Visibilidad: 10 km o más,
    sin nubes bajo los 5.000 pies o bajo del MSA (Mínimo de Seguridad del Aeródromo),
    sin cumulonimbus, y sin fenómenos de tiempo significativo en el aeródromo o alrededores
Temperatura: 7 °C
Rocío: 6 °C
Humedad_relativa: 93%
Presión: 1014 hPa
METAR del 21-09-2021 a las 08:00 UTC
Para mayor información visite www.meteochile.cl
METAR SCVM 210800Z 25003KT CAVOK 08/07 Q1013
Viento: dirección 250 grados, velocidad 3 nudos
Visibilidad: 10 km o más,
    sin nubes bajo los 5.000 pies o bajo del MSA (Mínimo de Seguridad del Aeródromo),
    sin cumulonimbus, y sin fenómenos de tiempo significativo en el aeródromo o alrededores
Temperatura: 8 °C
Rocío: 7 °C
Humedad_relativa: 93%
Presión: 1013 hPa
METAR del 21-09-2021 a las 07:00 UTC
Para mayor información visite www.meteochile.cl
METAR SCVM 210700Z 18003KT CAVOK 07/06 Q1013
Viento: dirección 180 grados, velocidad 3 nudos
Visibilidad: 10 km o más,
    sin nubes bajo los 5.000 pies o bajo del MSA (Mínimo de Seguridad del Aeródromo),
    sin cumulonimbus, y sin fenómenos de tiempo significativo en el aeródromo o alrededores
Temperatura: 7 °C
Rocío: 6 °C
Humedad_relativa: 93%
Presión: 1013 hPa
METAR del 21-09-2021 a las 06:00 UTC
Para mayor información visite www.meteochile.cl
METAR SCVM 210600Z 16003KT CAVOK 08/06 Q1013
Viento: dirección 160 grados, velocidad 3 nudos
Visibilidad: 10 km o más,
    sin nubes bajo los 5.000 pies o bajo del MSA (Mínimo de Seguridad del Aeródromo),
    sin cumulonimbus, y sin fenómenos de tiempo significativo en el aeródromo o alrededores
Temperatura: 8 °C
Rocío: 6 °C
Humedad_relativa: 87%
Presión: 1013 hPa
METAR del 21-09-2021 a las 05:00 UTC
Para mayor información visite www.meteochile.cl
METAR SCVM 210500Z 16003KT CAVOK 09/06 Q1013
Viento: dirección 160 grados, velocidad 3 nudos
Visibilidad: 10 km o más,
    sin nubes bajo los 5.000 pies o bajo del MSA (Mínimo de Seguridad del Aeródromo),
    sin cumulonimbus, y sin fenómenos de tiempo significativo en el aeródromo o alrededores
Temperatura: 9 °C
Rocío: 6 °C
Humedad_relativa: 81%
Presión: 1013 hPa
METAR del 21-09-2021 a las 04:00 UTC
Para mayor información visite www.meteochile.cl
METAR SCVM 210400Z 26003KT CAVOK 11/07 Q1013
Viento: dirección 260 grados, velocidad 3 nudos
Visibilidad: 10 km o más,
    sin nubes bajo los 5.000 pies o bajo del MSA (Mínimo de Seguridad del Aeródromo),
    sin cumulonimbus, y sin fenómenos de tiempo significativo en el aeródromo o alrededores
Temperatura: 11 °C
Rocío: 7 °C
Humedad_relativa: 76%
Presión: 1013 hPa
METAR del 21-09-2021 a las 03:00 UTC
Para mayor información visite www.meteochile.cl
METAR SCVM 210300Z 29005KT CAVOK 12/07 Q1013
Viento: dirección 290 grados, velocidad 5 nudos
Visibilidad: 10 km o más,
    sin nubes bajo los 5.000 pies o bajo del MSA (Mínimo de Seguridad del Aeródromo),
    sin cumulonimbus, y sin fenómenos de tiempo significativo en el aeródromo o alrededores
Temperatura: 12 °C
Rocío: 7 °C
Humedad_relativa: 71%
Presión: 1013 hPa
METAR del 21-09-2021 a las 02:00 UTC
Para mayor información visite www.meteochile.cl
METAR SCVM 210200Z 35004KT CAVOK 12/06 Q1014
Viento: dirección 350 grados, velocidad 4 nudos
Visibilidad: 10 km o más,
    sin nubes bajo los 5.000 pies o bajo del MSA (Mínimo de Seguridad del Aeródromo),
    sin cumulonimbus, y sin fenómenos de tiempo significativo en el aeródromo o alrededores
Temperatura: 12 °C
Rocío: 6 °C
Humedad_relativa: 67%
Presión: 1014 hPa
METAR del 21-09-2021 a las 01:00 UTC
Para mayor información visite www.meteochile.cl
METAR SCVM 210100Z 33002KT CAVOK 14/06 Q1014
Viento: dirección 330 grados, velocidad 2 nudos
Visibilidad: 10 km o más,
    sin nubes bajo los 5.000 pies o bajo del MSA (Mínimo de Seguridad del Aeródromo),
    sin cumulonimbus, y sin fenómenos de tiempo significativo en el aeródromo o alrededores
Temperatura: 14 °C
Rocío: 6 °C
Humedad_relativa: 59%
Presión: 1014 hPa